sensor_id;sensor_type;location;lat;lon;timestamp;P1;durP1;ratioP1;P2;durP2;ratioP2
53309;SDS011;39197;53.200;5.792;2023-10-19T00:00:45;22.23;;;17.05;;
53309;SDS011;39197;53.200;5.792;2023-10-19T00:03:13;21.25;;;17.85;;
53309;SDS011;39197;53.200;5.792;2023-10-19T00:05:40;24.20;;;18.17;;
53309;SDS011;39197;53.200;5.792;2023-10-19T00:08:10;26.75;;;19.30;;
53309;SDS011;39197;53.200;5.792;2023-10-19T00:10:46;26.20;;;19.30;;
53309;SDS011;39197;53.200;5.792;2023-10-19T00:13:20;24.88;;;20.33;;
53309;SDS011;39197;53.200;5.792;2023-10-19T00:15:47;25.35;;;19.42;;
53309;SDS011;39197;53.200;5.792;2023-10-19T00:18:23;26.92;;;21.20;;
53309;SDS011;39197;53.200;5.792;2023-10-19T00:20:53;26.95;;;21.05;;
53309;SDS011;39197;53.200;5.792;2023-10-19T00:23:25;25.10;;;20.10;;
53309;SDS011;39197;53.200;5.792;2023-10-19T00:25:57;27.92;;;21.30;;
53309;SDS011;39197;53.200;5.792;2023-10-19T00:28:23;29.17;;;21.45;;
53309;SDS011;39197;53.200;5.792;2023-10-19T00:30:53;29.65;;;22.33;;
53309;SDS011;39197;53.200;5.792;2023-10-19T00:33:24;31.90;;;22.95;;
53309;SDS011;39197;53.200;5.792;2023-10-19T00:35:54;28.45;;;22.73;;
53309;SDS011;39197;53.200;5.792;2023-10-19T00:38:32;28.55;;;23.20;;
53309;SDS011;39197;53.200;5.792;2023-10-19T00:41:02;32.67;;;24.92;;
53309;SDS011;39197;53.200;5.792;2023-10-19T00:43:32;34.47;;;26.17;;
53309;SDS011;39197;53.200;5.792;2023-10-19T00:46:06;31.75;;;24.65;;
53309;SDS011;39197;53.200;5.792;2023-10-19T00:48:51;31.08;;;24.90;;
53309;SDS011;39197;53.200;5.792;2023-10-19T00:51:22;34.53;;;26.52;;
53309;SDS011;39197;53.200;5.792;2023-10-19T00:54:17;35.13;;;26.10;;
53309;SDS011;39197;53.200;5.792;2023-10-19T00:56:58;34.13;;;24.77;;
53309;SDS011;39197;53.200;5.792;2023-10-19T00:59:30;36.90;;;26.60;;
53309;SDS011;39197;53.200;5.792;2023-10-19T01:02:00;33.95;;;25.08;;
53309;SDS011;39197;53.200;5.792;2023-10-19T01:04:50;36.58;;;27.15;;
53309;SDS011;39197;53.200;5.792;2023-10-19T01:07:45;32.17;;;25.17;;
53309;SDS011;39197;53.200;5.792;2023-10-19T01:10:12;34.45;;;27.05;;
53309;SDS011;39197;53.200;5.792;2023-10-19T01:12:44;33.03;;;26.08;;
53309;SDS011;39197;53.200;5.792;2023-10-19T01:15:14;35.83;;;27.63;;
53309;SDS011;39197;53.200;5.792;2023-10-19T01:17:53;32.67;;;26.30;;
53309;SDS011;39197;53.200;5.792;2023-10-19T01:20:26;35.67;;;26.08;;
53309;SDS011;39197;53.200;5.792;2023-10-19T01:22:57;35.72;;;27.92;;
53309;SDS011;39197;53.200;5.792;2023-10-19T01:25:45;39.63;;;30.25;;
53309;SDS011;39197;53.200;5.792;2023-10-19T01:31:08;32.10;;;26.35;;
53309;SDS011;39197;53.200;5.792;2023-10-19T01:33:55;33.95;;;27.10;;
53309;SDS011;39197;53.200;5.792;2023-10-19T01:36:28;37.00;;;29.00;;
53309;SDS011;39197;53.200;5.792;2023-10-19T01:38:57;38.80;;;30.00;;
53309;SDS011;39197;53.200;5.792;2023-10-19T01:41:26;36.95;;;28.95;;
53309;SDS011;39197;53.200;5.792;2023-10-19T01:43:53;35.28;;;28.63;;
53309;SDS011;39197;53.200;5.792;2023-10-19T01:46:19;38.05;;;31.63;;
53309;SDS011;39197;53.200;5.792;2023-10-19T01:48:47;34.42;;;27.52;;
53309;SDS011;39197;53.200;5.792;2023-10-19T01:51:20;39.40;;;28.80;;
53309;SDS011;39197;53.200;5.792;2023-10-19T01:53:48;37.67;;;29.58;;
53309;SDS011;39197;53.200;5.792;2023-10-19T01:56:14;39.33;;;29.73;;
53309;SDS011;39197;53.200;5.792;2023-10-19T01:58:44;39.90;;;31.70;;
53309;SDS011;39197;53.200;5.792;2023-10-19T02:01:13;35.35;;;26.63;;
53309;SDS011;39197;53.200;5.792;2023-10-19T02:03:52;37.53;;;28.45;;
53309;SDS011;39197;53.200;5.792;2023-10-19T02:06:21;39.40;;;29.98;;
53309;SDS011;39197;53.200;5.792;2023-10-19T02:11:25;43.85;;;32.78;;
53309;SDS011;39197;53.200;5.792;2023-10-19T02:13:53;44.72;;;29.95;;
53309;SDS011;39197;53.200;5.792;2023-10-19T02:16:25;35.72;;;25.65;;
53309;SDS011;39197;53.200;5.792;2023-10-19T02:18:54;42.35;;;29.88;;
53309;SDS011;39197;53.200;5.792;2023-10-19T02:21:20;40.47;;;30.45;;
53309;SDS011;39197;53.200;5.792;2023-10-19T02:23:55;32.75;;;24.70;;
53309;SDS011;39197;53.200;5.792;2023-10-19T02:26:22;37.53;;;27.88;;
53309;SDS011;39197;53.200;5.792;2023-10-19T02:28:51;35.75;;;27.15;;
53309;SDS011;39197;53.200;5.792;2023-10-19T02:31:17;35.28;;;26.15;;
53309;SDS011;39197;53.200;5.792;2023-10-19T02:33:50;29.77;;;23.92;;
53309;SDS011;39197;53.200;5.792;2023-10-19T02:36:17;29.83;;;24.13;;
53309;SDS011;39197;53.200;5.792;2023-10-19T02:38:44;39.53;;;27.88;;
53309;SDS011;39197;53.200;5.792;2023-10-19T02:41:14;28.98;;;21.75;;
53309;SDS011;39197;53.200;5.792;2023-10-19T02:43:41;28.55;;;22.38;;
53309;SDS011;39197;53.200;5.792;2023-10-19T02:46:10;27.15;;;21.35;;
53309;SDS011;39197;53.200;5.792;2023-10-19T02:48:38;28.75;;;22.58;;
53309;SDS011;39197;53.200;5.792;2023-10-19T02:51:09;27.13;;;21.30;;
53309;SDS011;39197;53.200;5.792;2023-10-19T02:53:36;25.63;;;21.63;;
53309;SDS011;39197;53.200;5.792;2023-10-19T02:56:10;27.75;;;21.88;;
53309;SDS011;39197;53.200;5.792;2023-10-19T02:58:42;26.65;;;20.55;;
53309;SDS011;39197;53.200;5.792;2023-10-19T03:01:21;23.15;;;19.08;;
53309;SDS011;39197;53.200;5.792;2023-10-19T03:03:50;24.92;;;19.27;;
53309;SDS011;39197;53.200;5.792;2023-10-19T03:06:19;18.88;;;16.15;;
53309;SDS011;39197;53.200;5.792;2023-10-19T03:08:46;22.48;;;17.42;;
53309;SDS011;39197;53.200;5.792;2023-10-19T03:11:12;21.05;;;16.92;;
53309;SDS011;39197;53.200;5.792;2023-10-19T03:13:39;19.60;;;16.40;;
53309;SDS011;39197;53.200;5.792;2023-10-19T03:16:06;17.23;;;14.52;;
53309;SDS011;39197;53.200;5.792;2023-10-19T03:18:35;17.50;;;15.18;;
53309;SDS011;39197;53.200;5.792;2023-10-19T03:21:01;18.27;;;14.50;;
53309;SDS011;39197;53.200;5.792;2023-10-19T03:23:28;20.05;;;15.77;;
53309;SDS011;39197;53.200;5.792;2023-10-19T03:25:54;18.63;;;15.48;;
53309;SDS011;39197;53.200;5.792;2023-10-19T03:28:41;21.00;;;15.85;;
53309;SDS011;39197;53.200;5.792;2023-10-19T03:31:09;18.48;;;15.10;;
53309;SDS011;39197;53.200;5.792;2023-10-19T03:33:42;19.08;;;14.88;;
53309;SDS011;39197;53.200;5.792;2023-10-19T03:36:15;16.20;;;14.25;;
53309;SDS011;39197;53.200;5.792;2023-10-19T03:38:41;18.00;;;14.05;;
53309;SDS011;39197;53.200;5.792;2023-10-19T03:41:08;16.60;;;12.85;;
53309;SDS011;39197;53.200;5.792;2023-10-19T03:43:35;15.95;;;12.05;;
53309;SDS011;39197;53.200;5.792;2023-10-19T03:46:05;15.63;;;13.05;;
53309;SDS011;39197;53.200;5.792;2023-10-19T03:48:40;17.30;;;13.35;;
53309;SDS011;39197;53.200;5.792;2023-10-19T03:51:05;15.60;;;12.32;;
53309;SDS011;39197;53.200;5.792;2023-10-19T03:53:31;14.65;;;12.48;;
53309;SDS011;39197;53.200;5.792;2023-10-19T03:56:03;14.02;;;11.07;;
53309;SDS011;39197;53.200;5.792;2023-10-19T03:58:32;16.35;;;13.13;;
53309;SDS011;39197;53.200;5.792;2023-10-19T04:00:57;13.10;;;11.65;;
53309;SDS011;39197;53.200;5.792;2023-10-19T04:03:26;13.35;;;11.95;;
53309;SDS011;39197;53.200;5.792;2023-10-19T04:05:55;15.65;;;12.13;;
53309;SDS011;39197;53.200;5.792;2023-10-19T04:08:21;15.65;;;11.95;;
53309;SDS011;39197;53.200;5.792;2023-10-19T04:10:51;14.80;;;12.68;;
53309;SDS011;39197;53.200;5.792;2023-10-19T04:13:35;14.85;;;12.85;;
53309;SDS011;39197;53.200;5.792;2023-10-19T04:16:03;14.93;;;12.48;;
53309;SDS011;39197;53.200;5.792;2023-10-19T04:18:30;16.65;;;13.52;;
53309;SDS011;39197;53.200;5.792;2023-10-19T04:20:56;16.00;;;12.80;;
53309;SDS011;39197;53.200;5.792;2023-10-19T04:23:24;15.50;;;13.57;;
53309;SDS011;39197;53.200;5.792;2023-10-19T04:25:56;17.02;;;13.80;;
53309;SDS011;39197;53.200;5.792;2023-10-19T04:28:22;17.83;;;14.52;;
53309;SDS011;39197;53.200;5.792;2023-10-19T04:31:10;19.80;;;16.23;;
53309;SDS011;39197;53.200;5.792;2023-10-19T04:33:39;19.27;;;15.93;;
53309;SDS011;39197;53.200;5.792;2023-10-19T04:36:07;18.98;;;15.50;;
53309;SDS011;39197;53.200;5.792;2023-10-19T04:38:36;22.55;;;16.67;;
53309;SDS011;39197;53.200;5.792;2023-10-19T04:41:05;20.95;;;16.55;;
53309;SDS011;39197;53.200;5.792;2023-10-19T04:43:32;20.15;;;15.55;;
53309;SDS011;39197;53.200;5.792;2023-10-19T04:45:59;17.48;;;13.10;;
53309;SDS011;39197;53.200;5.792;2023-10-19T04:48:26;22.20;;;15.73;;
53309;SDS011;39197;53.200;5.792;2023-10-19T04:50:51;19.42;;;15.45;;
53309;SDS011;39197;53.200;5.792;2023-10-19T04:53:17;18.40;;;15.38;;
53309;SDS011;39197;53.200;5.792;2023-10-19T04:55:42;21.58;;;16.42;;
53309;SDS011;39197;53.200;5.792;2023-10-19T04:58:10;17.05;;;13.63;;
53309;SDS011;39197;53.200;5.792;2023-10-19T05:00:35;17.33;;;14.40;;
53309;SDS011;39197;53.200;5.792;2023-10-19T05:03:01;17.45;;;13.70;;
53309;SDS011;39197;53.200;5.792;2023-10-19T05:05:27;12.85;;;10.90;;
53309;SDS011;39197;53.200;5.792;2023-10-19T05:07:53;15.65;;;13.38;;
53309;SDS011;39197;53.200;5.792;2023-10-19T05:10:18;14.13;;;12.23;;
53309;SDS011;39197;53.200;5.792;2023-10-19T05:12:44;15.13;;;11.93;;
53309;SDS011;39197;53.200;5.792;2023-10-19T05:15:10;15.10;;;11.38;;
53309;SDS011;39197;53.200;5.792;2023-10-19T05:17:36;11.98;;;10.50;;
53309;SDS011;39197;53.200;5.792;2023-10-19T05:20:01;15.75;;;12.52;;
53309;SDS011;39197;53.200;5.792;2023-10-19T05:22:30;14.35;;;12.55;;
53309;SDS011;39197;53.200;5.792;2023-10-19T05:24:57;13.68;;;11.60;;
53309;SDS011;39197;53.200;5.792;2023-10-19T05:27:23;14.95;;;13.00;;
53309;SDS011;39197;53.200;5.792;2023-10-19T05:29:48;16.25;;;12.82;;
53309;SDS011;39197;53.200;5.792;2023-10-19T05:32:14;13.95;;;12.32;;
53309;SDS011;39197;53.200;5.792;2023-10-19T05:34:39;17.35;;;13.85;;
53309;SDS011;39197;53.200;5.792;2023-10-19T05:37:05;14.60;;;12.95;;
53309;SDS011;39197;53.200;5.792;2023-10-19T05:39:31;14.68;;;12.35;;
53309;SDS011;39197;53.200;5.792;2023-10-19T05:41:58;14.90;;;13.13;;
53309;SDS011;39197;53.200;5.792;2023-10-19T05:44:25;15.40;;;13.10;;
53309;SDS011;39197;53.200;5.792;2023-10-19T05:46:52;16.27;;;13.43;;
53309;SDS011;39197;53.200;5.792;2023-10-19T05:49:19;15.20;;;13.65;;
53309;SDS011;39197;53.200;5.792;2023-10-19T05:51:45;16.10;;;12.35;;
53309;SDS011;39197;53.200;5.792;2023-10-19T05:54:11;14.57;;;12.82;;
53309;SDS011;39197;53.200;5.792;2023-10-19T05:56:37;12.27;;;11.07;;
53309;SDS011;39197;53.200;5.792;2023-10-19T05:59:03;13.52;;;12.02;;
53309;SDS011;39197;53.200;5.792;2023-10-19T06:01:29;16.40;;;13.45;;
53309;SDS011;39197;53.200;5.792;2023-10-19T06:03:55;14.52;;;13.02;;
53309;SDS011;39197;53.200;5.792;2023-10-19T06:06:21;15.48;;;13.80;;
53309;SDS011;39197;53.200;5.792;2023-10-19T06:08:47;15.93;;;14.30;;
53309;SDS011;39197;53.200;5.792;2023-10-19T06:11:14;17.55;;;15.85;;
53309;SDS011;39197;53.200;5.792;2023-10-19T06:13:40;17.90;;;16.10;;
53309;SDS011;39197;53.200;5.792;2023-10-19T06:16:05;17.83;;;15.93;;
53309;SDS011;39197;53.200;5.792;2023-10-19T06:18:31;19.70;;;17.60;;
53309;SDS011;39197;53.200;5.792;2023-10-19T06:20:56;19.85;;;17.90;;
53309;SDS011;39197;53.200;5.792;2023-10-19T06:23:22;17.85;;;16.20;;
53309;SDS011;39197;53.200;5.792;2023-10-19T06:25:48;15.70;;;14.20;;
53309;SDS011;39197;53.200;5.792;2023-10-19T06:28:16;16.73;;;15.10;;
53309;SDS011;39197;53.200;5.792;2023-10-19T06:30:42;17.10;;;15.30;;
53309;SDS011;39197;53.200;5.792;2023-10-19T06:33:07;16.30;;;14.73;;
53309;SDS011;39197;53.200;5.792;2023-10-19T06:35:33;14.93;;;13.45;;
53309;SDS011;39197;53.200;5.792;2023-10-19T06:38:01;16.35;;;14.82;;
53309;SDS011;39197;53.200;5.792;2023-10-19T06:40:29;17.13;;;15.43;;
53309;SDS011;39197;53.200;5.792;2023-10-19T06:42:55;18.35;;;16.55;;
53309;SDS011;39197;53.200;5.792;2023-10-19T06:45:22;18.58;;;16.70;;
53309;SDS011;39197;53.200;5.792;2023-10-19T06:47:50;18.15;;;16.45;;
53309;SDS011;39197;53.200;5.792;2023-10-19T06:50:17;18.75;;;16.95;;
53309;SDS011;39197;53.200;5.792;2023-10-19T06:52:45;18.80;;;16.90;;
53309;SDS011;39197;53.200;5.792;2023-10-19T06:55:14;19.05;;;17.15;;
53309;SDS011;39197;53.200;5.792;2023-10-19T06:57:46;17.75;;;16.05;;
53309;SDS011;39197;53.200;5.792;2023-10-19T07:00:16;15.07;;;13.63;;
53309;SDS011;39197;53.200;5.792;2023-10-19T07:02:47;15.35;;;13.93;;
53309;SDS011;39197;53.200;5.792;2023-10-19T07:05:15;15.48;;;13.98;;
53309;SDS011;39197;53.200;5.792;2023-10-19T07:07:47;15.30;;;13.70;;
53309;SDS011;39197;53.200;5.792;2023-10-19T07:10:13;17.60;;;15.90;;
53309;SDS011;39197;53.200;5.792;2023-10-19T07:12:40;19.42;;;17.52;;
53309;SDS011;39197;53.200;5.792;2023-10-19T07:15:07;19.75;;;17.90;;
53309;SDS011;39197;53.200;5.792;2023-10-19T07:17:38;21.00;;;19.10;;
53309;SDS011;39197;53.200;5.792;2023-10-19T07:20:08;20.08;;;18.08;;
53309;SDS011;39197;53.200;5.792;2023-10-19T07:22:54;21.60;;;19.38;;
53309;SDS011;39197;53.200;5.792;2023-10-19T07:25:21;21.13;;;18.92;;
53309;SDS011;39197;53.200;5.792;2023-10-19T07:27:51;19.20;;;17.30;;
53309;SDS011;39197;53.200;5.792;2023-10-19T07:30:20;19.95;;;17.95;;
53309;SDS011;39197;53.200;5.792;2023-10-19T07:32:50;20.15;;;18.15;;
53309;SDS011;39197;53.200;5.792;2023-10-19T07:35:19;19.70;;;17.77;;
53309;SDS011;39197;53.200;5.792;2023-10-19T07:37:45;20.23;;;18.15;;
53309;SDS011;39197;53.200;5.792;2023-10-19T07:40:13;20.33;;;18.33;;
53309;SDS011;39197;53.200;5.792;2023-10-19T07:42:41;18.75;;;16.75;;
53309;SDS011;39197;53.200;5.792;2023-10-19T07:45:08;17.13;;;15.40;;
53309;SDS011;39197;53.200;5.792;2023-10-19T07:47:39;17.77;;;15.95;;
53309;SDS011;39197;53.200;5.792;2023-10-19T07:50:09;17.30;;;15.60;;
53309;SDS011;39197;53.200;5.792;2023-10-19T07:52:41;16.25;;;14.65;;
53309;SDS011;39197;53.200;5.792;2023-10-19T07:55:13;19.50;;;16.77;;
53309;SDS011;39197;53.200;5.792;2023-10-19T07:57:39;18.00;;;16.10;;
53309;SDS011;39197;53.200;5.792;2023-10-19T08:00:08;20.48;;;18.38;;
53309;SDS011;39197;53.200;5.792;2023-10-19T08:02:35;18.88;;;16.80;;
53309;SDS011;39197;53.200;5.792;2023-10-19T08:05:03;20.08;;;18.05;;
53309;SDS011;39197;53.200;5.792;2023-10-19T08:07:29;21.27;;;18.65;;
53309;SDS011;39197;53.200;5.792;2023-10-19T08:09:55;22.02;;;19.73;;
53309;SDS011;39197;53.200;5.792;2023-10-19T08:12:23;26.35;;;21.23;;
53309;SDS011;39197;53.200;5.792;2023-10-19T08:14:51;23.02;;;20.73;;
53309;SDS011;39197;53.200;5.792;2023-10-19T08:17:18;21.25;;;19.15;;
53309;SDS011;39197;53.200;5.792;2023-10-19T08:19:43;23.90;;;21.40;;
53309;SDS011;39197;53.200;5.792;2023-10-19T08:22:09;23.80;;;21.20;;
53309;SDS011;39197;53.200;5.792;2023-10-19T08:24:35;23.02;;;20.63;;
53309;SDS011;39197;53.200;5.792;2023-10-19T08:27:01;23.52;;;21.13;;
53309;SDS011;39197;53.200;5.792;2023-10-19T08:29:27;23.60;;;21.30;;
53309;SDS011;39197;53.200;5.792;2023-10-19T08:31:55;23.67;;;21.17;;
53309;SDS011;39197;53.200;5.792;2023-10-19T08:34:21;25.38;;;22.05;;
53309;SDS011;39197;53.200;5.792;2023-10-19T08:36:46;26.33;;;22.77;;
53309;SDS011;39197;53.200;5.792;2023-10-19T08:39:14;30.77;;;23.40;;
53309;SDS011;39197;53.200;5.792;2023-10-19T08:41:40;26.35;;;21.77;;
53309;SDS011;39197;53.200;5.792;2023-10-19T08:44:06;25.50;;;22.33;;
53309;SDS011;39197;53.200;5.792;2023-10-19T08:46:42;27.15;;;22.60;;
53309;SDS011;39197;53.200;5.792;2023-10-19T08:49:10;27.63;;;22.73;;
53309;SDS011;39197;53.200;5.792;2023-10-19T08:51:37;24.23;;;21.40;;
53309;SDS011;39197;53.200;5.792;2023-10-19T08:54:07;25.17;;;22.35;;
53309;SDS011;39197;53.200;5.792;2023-10-19T08:56:35;25.90;;;23.17;;
53309;SDS011;39197;53.200;5.792;2023-10-19T08:59:01;25.55;;;22.75;;
53309;SDS011;39197;53.200;5.792;2023-10-19T09:01:27;26.33;;;23.48;;
53309;SDS011;39197;53.200;5.792;2023-10-19T09:03:56;27.13;;;23.88;;
53309;SDS011;39197;53.200;5.792;2023-10-19T09:06:23;27.10;;;24.23;;
53309;SDS011;39197;53.200;5.792;2023-10-19T09:08:49;26.92;;;24.02;;
53309;SDS011;39197;53.200;5.792;2023-10-19T09:11:14;26.90;;;23.20;;
53309;SDS011;39197;53.200;5.792;2023-10-19T09:13:47;28.35;;;23.48;;
53309;SDS011;39197;53.200;5.792;2023-10-19T09:16:18;25.92;;;22.52;;
53309;SDS011;39197;53.200;5.792;2023-10-19T09:18:46;26.63;;;23.20;;
53309;SDS011;39197;53.200;5.792;2023-10-19T09:21:15;31.63;;;24.15;;
53309;SDS011;39197;53.200;5.792;2023-10-19T09:23:51;27.20;;;22.42;;
53309;SDS011;39197;53.200;5.792;2023-10-19T09:26:18;26.92;;;22.70;;
53309;SDS011;39197;53.200;5.792;2023-10-19T09:28:47;27.60;;;22.10;;
53309;SDS011;39197;53.200;5.792;2023-10-19T09:31:17;25.90;;;22.52;;
53309;SDS011;39197;53.200;5.792;2023-10-19T09:33:45;30.75;;;24.17;;
53309;SDS011;39197;53.200;5.792;2023-10-19T09:36:14;29.98;;;24.52;;
53309;SDS011;39197;53.200;5.792;2023-10-19T09:38:46;31.02;;;24.83;;
53309;SDS011;39197;53.200;5.792;2023-10-19T09:41:22;31.63;;;23.67;;
53309;SDS011;39197;53.200;5.792;2023-10-19T09:43:53;30.58;;;24.50;;
53309;SDS011;39197;53.200;5.792;2023-10-19T09:46:29;27.60;;;24.10;;
53309;SDS011;39197;53.200;5.792;2023-10-19T09:48:57;31.58;;;25.98;;
53309;SDS011;39197;53.200;5.792;2023-10-19T09:51:23;32.17;;;25.88;;
53309;SDS011;39197;53.200;5.792;2023-10-19T09:53:55;31.33;;;25.30;;
53309;SDS011;39197;53.200;5.792;2023-10-19T09:56:26;29.52;;;24.33;;
53309;SDS011;39197;53.200;5.792;2023-10-19T09:59:02;29.77;;;24.88;;
53309;SDS011;39197;53.200;5.792;2023-10-19T10:04:32;26.80;;;23.20;;
53309;SDS011;39197;53.200;5.792;2023-10-19T10:07:00;33.17;;;25.10;;
53309;SDS011;39197;53.200;5.792;2023-10-19T10:09:26;32.30;;;26.25;;
53309;SDS011;39197;53.200;5.792;2023-10-19T10:11:52;33.95;;;25.88;;
53309;SDS011;39197;53.200;5.792;2023-10-19T10:14:25;32.25;;;26.17;;
53309;SDS011;39197;53.200;5.792;2023-10-19T10:17:03;28.20;;;24.45;;
53309;SDS011;39197;53.200;5.792;2023-10-19T10:19:34;26.88;;;22.00;;
53309;SDS011;39197;53.200;5.792;2023-10-19T10:22:10;26.33;;;23.50;;
53309;SDS011;39197;53.200;5.792;2023-10-19T10:24:46;25.20;;;22.48;;
53309;SDS011;39197;53.200;5.792;2023-10-19T10:27:12;26.17;;;23.23;;
53309;SDS011;39197;53.200;5.792;2023-10-19T10:29:56;26.60;;;23.80;;
53309;SDS011;39197;53.200;5.792;2023-10-19T10:38:06;23.83;;;21.45;;
53309;SDS011;39197;53.200;5.792;2023-10-19T10:40:45;23.10;;;20.77;;
53309;SDS011;39197;53.200;5.792;2023-10-19T10:43:15;22.77;;;20.38;;
53309;SDS011;39197;53.200;5.792;2023-10-19T10:45:41;21.20;;;19.20;;
53309;SDS011;39197;53.200;5.792;2023-10-19T10:48:11;19.85;;;17.95;;
53309;SDS011;39197;53.200;5.792;2023-10-19T10:50:40;20.55;;;17.33;;
53309;SDS011;39197;53.200;5.792;2023-10-19T10:53:07;18.58;;;16.65;;
53309;SDS011;39197;53.200;5.792;2023-10-19T10:55:33;17.63;;;15.82;;
53309;SDS011;39197;53.200;5.792;2023-10-19T10:57:59;19.23;;;17.23;;
53309;SDS011;39197;53.200;5.792;2023-10-19T11:00:25;19.02;;;17.20;;
53309;SDS011;39197;53.200;5.792;2023-10-19T11:03:00;19.35;;;17.55;;
53309;SDS011;39197;53.200;5.792;2023-10-19T11:05:29;18.02;;;15.70;;
53309;SDS011;39197;53.200;5.792;2023-10-19T11:08:10;18.05;;;16.30;;
53309;SDS011;39197;53.200;5.792;2023-10-19T11:10:46;17.30;;;15.52;;
53309;SDS011;39197;53.200;5.792;2023-10-19T11:13:17;17.73;;;15.35;;
53309;SDS011;39197;53.200;5.792;2023-10-19T11:15:51;15.32;;;13.73;;
53309;SDS011;39197;53.200;5.792;2023-10-19T11:21:06;16.67;;;14.98;;
53309;SDS011;39197;53.200;5.792;2023-10-19T11:23:48;16.10;;;14.50;;
53309;SDS011;39197;53.200;5.792;2023-10-19T11:26:16;16.27;;;14.27;;
53309;SDS011;39197;53.200;5.792;2023-10-19T11:28:42;15.30;;;13.70;;
53309;SDS011;39197;53.200;5.792;2023-10-19T11:33:47;18.13;;;16.25;;
53309;SDS011;39197;53.200;5.792;2023-10-19T11:36:18;19.17;;;17.17;;
53309;SDS011;39197;53.200;5.792;2023-10-19T11:38:49;22.13;;;17.38;;
53309;SDS011;39197;53.200;5.792;2023-10-19T11:41:16;18.50;;;16.58;;
53309;SDS011;39197;53.200;5.792;2023-10-19T11:43:44;18.38;;;16.52;;
53309;SDS011;39197;53.200;5.792;2023-10-19T11:46:10;17.42;;;15.50;;
53309;SDS011;39197;53.200;5.792;2023-10-19T11:48:50;16.42;;;14.70;;
53309;SDS011;39197;53.200;5.792;2023-10-19T11:51:16;15.63;;;13.85;;
53309;SDS011;39197;53.200;5.792;2023-10-19T11:53:42;15.10;;;13.27;;
53309;SDS011;39197;53.200;5.792;2023-10-19T11:56:08;14.73;;;13.10;;
53309;SDS011;39197;53.200;5.792;2023-10-19T11:58:37;13.80;;;11.65;;
53309;SDS011;39197;53.200;5.792;2023-10-19T12:01:05;13.82;;;12.48;;
53309;SDS011;39197;53.200;5.792;2023-10-19T12:03:33;12.52;;;10.60;;
53309;SDS011;39197;53.200;5.792;2023-10-19T12:06:03;11.75;;;10.55;;
53309;SDS011;39197;53.200;5.792;2023-10-19T12:08:31;11.13;;;10.13;;
53309;SDS011;39197;53.200;5.792;2023-10-19T12:10:57;14.48;;;11.88;;
53309;SDS011;39197;53.200;5.792;2023-10-19T12:13:23;14.05;;;11.70;;
53309;SDS011;39197;53.200;5.792;2023-10-19T12:15:49;13.52;;;12.07;;
53309;SDS011;39197;53.200;5.792;2023-10-19T12:18:19;13.70;;;12.15;;
53309;SDS011;39197;53.200;5.792;2023-10-19T12:20:48;15.57;;;13.90;;
53309;SDS011;39197;53.200;5.792;2023-10-19T12:23:14;15.68;;;13.73;;
53309;SDS011;39197;53.200;5.792;2023-10-19T12:25:39;13.75;;;10.95;;
53309;SDS011;39197;53.200;5.792;2023-10-19T12:28:07;16.65;;;12.70;;
53309;SDS011;39197;53.200;5.792;2023-10-19T12:30:33;13.02;;;11.63;;
53309;SDS011;39197;53.200;5.792;2023-10-19T12:33:06;12.88;;;11.50;;
53309;SDS011;39197;53.200;5.792;2023-10-19T12:35:41;14.30;;;11.82;;
53309;SDS011;39197;53.200;5.792;2023-10-19T12:40:42;11.07;;;9.98;;
53309;SDS011;39197;53.200;5.792;2023-10-19T12:43:12;13.60;;;9.98;;
53309;SDS011;39197;53.200;5.792;2023-10-19T12:45:43;13.00;;;10.27;;
53309;SDS011;39197;53.200;5.792;2023-10-19T12:48:15;10.35;;;9.35;;
53309;SDS011;39197;53.200;5.792;2023-10-19T12:50:41;13.30;;;11.15;;
53309;SDS011;39197;53.200;5.792;2023-10-19T12:53:07;11.85;;;9.85;;
53309;SDS011;39197;53.200;5.792;2023-10-19T12:55:34;11.65;;;9.27;;
53309;SDS011;39197;53.200;5.792;2023-10-19T12:58:02;11.40;;;9.02;;
53309;SDS011;39197;53.200;5.792;2023-10-19T13:00:37;10.55;;;8.65;;
53309;SDS011;39197;53.200;5.792;2023-10-19T13:03:06;11.55;;;9.82;;
53309;SDS011;39197;53.200;5.792;2023-10-19T13:05:33;10.70;;;8.95;;
53309;SDS011;39197;53.200;5.792;2023-10-19T13:08:00;12.32;;;11.13;;
53309;SDS011;39197;53.200;5.792;2023-10-19T13:10:29;10.80;;;9.57;;
53309;SDS011;39197;53.200;5.792;2023-10-19T13:12:59;8.18;;;7.38;;
53309;SDS011;39197;53.200;5.792;2023-10-19T13:15:32;10.43;;;8.02;;
53309;SDS011;39197;53.200;5.792;2023-10-19T13:18:03;9.85;;;8.27;;
53309;SDS011;39197;53.200;5.792;2023-10-19T13:20:30;8.93;;;8.02;;
53309;SDS011;39197;53.200;5.792;2023-10-19T13:23:00;10.65;;;8.60;;
53309;SDS011;39197;53.200;5.792;2023-10-19T13:25:28;14.43;;;9.80;;
53309;SDS011;39197;53.200;5.792;2023-10-19T13:28:08;10.75;;;8.75;;
53309;SDS011;39197;53.200;5.792;2023-10-19T13:30:41;13.10;;;10.77;;
53309;SDS011;39197;53.200;5.792;2023-10-19T13:33:09;14.07;;;11.05;;
53309;SDS011;39197;53.200;5.792;2023-10-19T13:35:38;13.57;;;10.98;;
53309;SDS011;39197;53.200;5.792;2023-10-19T13:38:05;15.95;;;11.63;;
53309;SDS011;39197;53.200;5.792;2023-10-19T13:40:35;17.98;;;12.85;;
53309;SDS011;39197;53.200;5.792;2023-10-19T13:43:03;17.38;;;13.57;;
53309;SDS011;39197;53.200;5.792;2023-10-19T13:45:31;16.08;;;11.75;;
53309;SDS011;39197;53.200;5.792;2023-10-19T13:48:04;18.47;;;12.47;;
53309;SDS011;39197;53.200;5.792;2023-10-19T13:50:30;19.90;;;13.40;;
53309;SDS011;39197;53.200;5.792;2023-10-19T13:52:57;16.95;;;11.98;;
53309;SDS011;39197;53.200;5.792;2023-10-19T13:55:24;14.73;;;11.82;;
53309;SDS011;39197;53.200;5.792;2023-10-19T13:57:50;18.83;;;14.65;;
53309;SDS011;39197;53.200;5.792;2023-10-19T14:00:16;19.40;;;15.15;;
53309;SDS011;39197;53.200;5.792;2023-10-19T14:02:50;23.67;;;18.23;;
53309;SDS011;39197;53.200;5.792;2023-10-19T14:05:16;22.10;;;16.08;;
53309;SDS011;39197;53.200;5.792;2023-10-19T14:07:43;23.95;;;16.40;;
53309;SDS011;39197;53.200;5.792;2023-10-19T14:10:09;19.27;;;16.55;;
53309;SDS011;39197;53.200;5.792;2023-10-19T14:12:42;28.77;;;17.40;;
53309;SDS011;39197;53.200;5.792;2023-10-19T14:15:15;23.55;;;16.83;;
53309;SDS011;39197;53.200;5.792;2023-10-19T14:17:43;18.23;;;14.38;;
53309;SDS011;39197;53.200;5.792;2023-10-19T14:20:11;22.23;;;16.45;;
53309;SDS011;39197;53.200;5.792;2023-10-19T14:22:40;22.02;;;17.27;;
53309;SDS011;39197;53.200;5.792;2023-10-19T14:25:08;19.70;;;15.68;;
53309;SDS011;39197;53.200;5.792;2023-10-19T14:27:37;23.48;;;15.52;;
53309;SDS011;39197;53.200;5.792;2023-10-19T14:30:16;20.88;;;15.60;;
53309;SDS011;39197;53.200;5.792;2023-10-19T14:32:44;19.48;;;14.63;;
53309;SDS011;39197;53.200;5.792;2023-10-19T14:35:14;18.35;;;14.75;;
53309;SDS011;39197;53.200;5.792;2023-10-19T14:37:41;19.02;;;14.43;;
53309;SDS011;39197;53.200;5.792;2023-10-19T14:40:09;21.40;;;15.10;;
53309;SDS011;39197;53.200;5.792;2023-10-19T14:42:39;18.42;;;14.90;;
53309;SDS011;39197;53.200;5.792;2023-10-19T14:45:08;17.85;;;14.88;;
53309;SDS011;39197;53.200;5.792;2023-10-19T14:47:37;19.65;;;15.70;;
53309;SDS011;39197;53.200;5.792;2023-10-19T14:50:05;17.73;;;15.10;;
53309;SDS011;39197;53.200;5.792;2023-10-19T14:52:39;15.52;;;13.88;;
53309;SDS011;39197;53.200;5.792;2023-10-19T14:55:09;16.80;;;14.70;;
53309;SDS011;39197;53.200;5.792;2023-10-19T14:57:35;17.17;;;14.48;;